Time;durP1;ratioP1;P1;durP2;ratioP2;P2;SDS_P1;SDS_P2;PMS_P1;PMS_P2;Temp;Humidity;BMP_temperature;BMP_pressure;BME280_temperature;BME280_humidity;BME280_pressure;Samples;Min_cycle;Max_cycle;Signal;HPM_P1;HPM_P2
2022/10/12 00:01:30;;;;;;;;;;;24.00;47.90;;;;;;491954;240;1114;-74
2022/10/12 00:03:31;;;;;;;;;;;24.00;47.90;;;;;;491863;240;1126;-74
2022/10/12 00:05:33;;;;;;;;;;;24.00;48.00;;;;;;491859;240;1133;-74
2022/10/12 00:07:34;;;;;;;;;;;24.00;47.90;;;;;;491912;240;1144;-74
2022/10/12 00:09:35;;;;;;;;;;;24.00;47.80;;;;;;491920;240;2199;-74
2022/10/12 00:11:37;;;;;;;;;;;24.00;47.90;;;;;;491878;240;1128;-75
2022/10/12 00:13:38;;;;;;;;;;;24.00;47.90;;;;;;491783;240;1087;-75
2022/10/12 00:15:39;;;;;;;;;;;23.90;47.90;;;;;;491819;240;1154;-74
2022/10/12 00:17:41;;;;;;;;;;;24.00;47.80;;;;;;491866;240;1206;-74
2022/10/12 00:19:42;;;;;;;;;;;24.00;47.80;;;;;;491845;240;1154;-74
2022/10/12 00:21:43;;;;;;;;;;;23.90;47.80;;;;;;491856;240;1084;-75
2022/10/12 00:23:45;;;;;;;;;;;23.90;47.90;;;;;;491931;240;1206;-75
2022/10/12 00:25:46;;;;;;;;;;;23.90;47.90;;;;;;491860;240;1154;-74
2022/10/12 00:27:47;;;;;;;;;;;23.90;47.90;;;;;;491834;240;1176;-74
2022/10/12 00:29:49;;;;;;;;;;;23.90;47.90;;;;;;491852;240;2164;-74
2022/10/12 00:31:50;;;;;;;;;;;23.90;47.80;;;;;;491852;240;1198;-74
2022/10/12 00:33:51;;;;;;;;;;;23.90;47.80;;;;;;491902;240;1110;-74
2022/10/12 00:35:53;;;;;;;;;;;23.90;47.80;;;;;;491856;240;1199;-75
2022/10/12 00:37:54;;;;;;;;;;;23.90;47.90;;;;;;491890;240;1437;-74
2022/10/12 00:39:55;;;;;;;;;;;23.80;47.90;;;;;;491953;240;1106;-74
2022/10/12 00:41:57;;;;;;;;;;;23.80;47.90;;;;;;491920;240;1208;-74
2022/10/12 00:43:58;;;;;;;;;;;23.80;47.90;;;;;;491920;240;1225;-74
2022/10/12 00:45:59;;;;;;;;;;;23.80;47.90;;;;;;491812;240;1080;-74
2022/10/12 00:48:01;;;;;;;;;;;23.80;47.90;;;;;;491886;240;1059;-74
2022/10/12 00:50:02;;;;;;;;;;;23.80;48.00;;;;;;491878;240;2147;-74
2022/10/12 00:52:03;;;;;;;;;;;23.80;47.90;;;;;;491950;240;1097;-74
2022/10/12 00:54:05;;;;;;;;;;;23.70;48.00;;;;;;491853;240;1169;-74
2022/10/12 00:56:06;;;;;;;;;;;23.80;47.80;;;;;;491915;240;1169;-74
2022/10/12 00:58:07;;;;;;;;;;;23.70;47.90;;;;;;491970;240;1160;-74
2022/10/12 01:00:09;;;;;;;;;;;23.80;47.80;;;;;;491856;240;1196;-74
2022/10/12 01:02:10;;;;;;;;;;;23.90;47.70;;;;;;491850;240;1082;-74
2022/10/12 01:04:12;;;;;;;;;;;23.80;47.80;;;;;;491876;240;1169;-74
2022/10/12 01:06:13;;;;;;;;;;;23.80;47.80;;;;;;491908;240;1121;-74
2022/10/12 01:08:14;;;;;;;;;;;23.80;47.70;;;;;;491894;240;1249;-74
2022/10/12 01:10:16;;;;;;;;;;;23.80;47.80;;;;;;491848;240;2202;-74
2022/10/12 01:12:17;;;;;;;;;;;23.70;47.70;;;;;;491721;240;1216;-74
2022/10/12 01:14:18;;;;;;;;;;;23.80;47.60;;;;;;491849;240;1068;-74
2022/10/12 01:16:20;;;;;;;;;;;23.70;47.60;;;;;;491685;240;1108;-74
2022/10/12 01:18:21;;;;;;;;;;;23.70;47.60;;;;;;491848;240;1079;-74
2022/10/12 01:20:22;;;;;;;;;;;23.70;47.70;;;;;;491843;240;1169;-74
2022/10/12 01:22:24;;;;;;;;;;;23.70;47.70;;;;;;491729;240;1200;-74
2022/10/12 01:24:25;;;;;;;;;;;23.70;47.80;;;;;;491894;240;1057;-74
2022/10/12 01:26:26;;;;;;;;;;;23.70;47.60;;;;;;491713;240;1253;-74
2022/10/12 01:28:28;;;;;;;;;;;23.80;47.50;;;;;;491853;240;1181;-74
2022/10/12 01:30:29;;;;;;;;;;;23.70;47.60;;;;;;491853;240;2196;-74
2022/10/12 01:32:30;;;;;;;;;;;23.80;47.60;;;;;;491712;240;1281;-74
2022/10/12 01:34:32;;;;;;;;;;;23.70;47.50;;;;;;491900;240;1062;-74
2022/10/12 01:36:33;;;;;;;;;;;23.70;47.60;;;;;;491700;240;1200;-74
2022/10/12 01:38:34;;;;;;;;;;;23.70;47.50;;;;;;491849;240;1093;-74
2022/10/12 01:40:36;;;;;;;;;;;23.70;47.50;;;;;;491912;240;1119;-74
2022/10/12 01:42:37;;;;;;;;;;;23.70;47.50;;;;;;491700;240;1157;-74
2022/10/12 01:44:38;;;;;;;;;;;23.70;47.50;;;;;;491830;240;1082;-74
2022/10/12 01:46:40;;;;;;;;;;;23.70;47.50;;;;;;491641;240;1187;-74
2022/10/12 01:48:41;;;;;;;;;;;23.70;47.50;;;;;;491900;240;1095;-74
2022/10/12 01:50:42;;;;;;;;;;;23.70;47.50;;;;;;491819;240;2195;-74
2022/10/12 01:52:44;;;;;;;;;;;23.70;47.40;;;;;;491895;240;1306;-74
2022/10/12 01:54:45;;;;;;;;;;;23.80;47.50;;;;;;491857;240;1491;-74
2022/10/12 01:56:47;;;;;;;;;;;23.70;47.50;;;;;;491901;240;1233;-74
2022/10/12 01:58:48;;;;;;;;;;;23.70;47.60;;;;;;491891;240;1132;-74
2022/10/12 02:00:49;;;;;;;;;;;23.60;47.70;;;;;;491813;240;1207;-74
2022/10/12 02:02:50;;;;;;;;;;;23.60;47.70;;;;;;491881;240;1111;-74
2022/10/12 02:04:52;;;;;;;;;;;23.60;47.70;;;;;;491912;240;1288;-74
2022/10/12 02:06:53;;;;;;;;;;;23.60;47.70;;;;;;491904;240;1191;-74
2022/10/12 02:08:54;;;;;;;;;;;23.60;47.70;;;;;;491950;240;1129;-74
2022/10/12 02:10:56;;;;;;;;;;;23.50;47.80;;;;;;491948;240;2187;-74
2022/10/12 02:12:57;;;;;;;;;;;23.50;47.70;;;;;;491867;240;1247;-74
2022/10/12 02:14:58;;;;;;;;;;;23.50;47.80;;;;;;491893;240;1098;-74
2022/10/12 02:17:00;;;;;;;;;;;23.40;47.90;;;;;;491880;240;1187;-74
2022/10/12 02:19:01;;;;;;;;;;;23.60;47.90;;;;;;491884;240;1090;-74
2022/10/12 02:21:02;;;;;;;;;;;23.50;47.70;;;;;;491905;240;1153;-74
2022/10/12 02:23:04;;;;;;;;;;;23.50;47.70;;;;;;491917;240;1051;-74
2022/10/12 02:25:05;;;;;;;;;;;23.60;47.70;;;;;;491895;240;1081;-74
2022/10/12 02:27:06;;;;;;;;;;;23.60;47.60;;;;;;492004;240;1042;-74
2022/10/12 02:29:08;;;;;;;;;;;23.60;47.50;;;;;;491875;240;1125;-74
2022/10/12 02:31:09;;;;;;;;;;;23.60;47.60;;;;;;491975;240;2211;-74
2022/10/12 02:33:10;;;;;;;;;;;23.60;47.60;;;;;;491924;240;1110;-74
2022/10/12 02:35:12;;;;;;;;;;;23.60;47.60;;;;;;491899;240;1211;-74
2022/10/12 02:37:13;;;;;;;;;;;23.60;47.60;;;;;;491877;240;1114;-74
2022/10/12 02:39:14;;;;;;;;;;;23.60;47.50;;;;;;491915;240;1094;-75
2022/10/12 02:41:16;;;;;;;;;;;23.70;47.60;;;;;;491888;240;1148;-74
2022/10/12 02:43:17;;;;;;;;;;;23.60;47.40;;;;;;491885;240;1101;-74
2022/10/12 02:45:19;;;;;;;;;;;23.70;47.40;;;;;;491910;240;1075;-74
2022/10/12 02:47:20;;;;;;;;;;;23.70;47.30;;;;;;491874;240;1102;-74
2022/10/12 02:49:21;;;;;;;;;;;23.70;47.40;;;;;;491913;240;1164;-74
2022/10/12 02:51:23;;;;;;;;;;;23.70;47.40;;;;;;491883;240;2155;-74
2022/10/12 02:53:24;;;;;;;;;;;23.80;47.30;;;;;;491908;240;1174;-74
2022/10/12 02:55:25;;;;;;;;;;;23.80;47.20;;;;;;491847;240;1212;-74
2022/10/12 02:57:27;;;;;;;;;;;23.80;47.10;;;;;;491934;240;1099;-75
2022/10/12 02:59:28;;;;;;;;;;;23.90;47.10;;;;;;491914;240;1419;-74
2022/10/12 03:01:29;;;;;;;;;;;23.80;47.10;;;;;;491997;240;1055;-74
2022/10/12 03:03:31;;;;;;;;;;;23.80;47.20;;;;;;491869;240;1105;-74
2022/10/12 03:05:32;;;;;;;;;;;23.80;47.30;;;;;;491922;240;1205;-74
2022/10/12 03:07:33;;;;;;;;;;;23.70;47.30;;;;;;491921;240;1031;-74
2022/10/12 03:09:35;;;;;;;;;;;23.80;47.20;;;;;;491909;240;1191;-74
2022/10/12 03:11:36;;;;;;;;;;;23.80;47.30;;;;;;491856;240;2192;-74
2022/10/12 03:13:38;;;;;;;;;;;23.80;47.20;;;;;;491856;240;1214;-74
2022/10/12 03:15:39;;;;;;;;;;;23.90;47.20;;;;;;491884;240;1038;-74
2022/10/12 03:17:40;;;;;;;;;;;23.80;47.20;;;;;;491910;240;1175;-74
2022/10/12 03:19:42;;;;;;;;;;;23.80;47.20;;;;;;491891;240;1210;-74
2022/10/12 03:21:43;;;;;;;;;;;23.80;47.30;;;;;;491943;240;1062;-74
2022/10/12 03:23:44;;;;;;;;;;;23.80;47.40;;;;;;491895;240;1151;-74
2022/10/12 03:25:46;;;;;;;;;;;23.80;47.30;;;;;;491850;240;1146;-74
2022/10/12 03:27:47;;;;;;;;;;;23.80;47.30;;;;;;491887;240;1242;-74
2022/10/12 03:29:48;;;;;;;;;;;23.80;47.30;;;;;;491878;240;1104;-74
2022/10/12 03:31:50;;;;;;;;;;;23.70;47.40;;;;;;491952;240;2175;-74
2022/10/12 03:33:51;;;;;;;;;;;23.80;47.40;;;;;;491910;240;1132;-74
2022/10/12 03:35:52;;;;;;;;;;;23.70;47.40;;;;;;491923;240;1062;-74
2022/10/12 03:37:54;;;;;;;;;;;23.70;47.40;;;;;;491880;240;1103;-74
2022/10/12 03:39:55;;;;;;;;;;;23.70;47.40;;;;;;491878;240;1111;-74
2022/10/12 03:41:57;;;;;;;;;;;23.80;47.30;;;;;;491923;240;1045;-74
2022/10/12 03:43:58;;;;;;;;;;;23.80;47.40;;;;;;491949;240;1101;-74
2022/10/12 03:45:59;;;;;;;;;;;23.80;47.40;;;;;;491906;240;1069;-74
2022/10/12 03:48:01;;;;;;;;;;;23.80;47.40;;;;;;491954;240;1235;-74
2022/10/12 03:50:02;;;;;;;;;;;23.80;47.50;;;;;;491884;240;1041;-75
2022/10/12 03:52:03;;;;;;;;;;;23.80;47.50;;;;;;491890;240;2180;-74
2022/10/12 03:54:05;;;;;;;;;;;23.80;47.40;;;;;;491846;240;1020;-74
2022/10/12 03:56:06;;;;;;;;;;;23.70;47.50;;;;;;491881;240;1184;-74
2022/10/12 03:58:07;;;;;;;;;;;23.70;47.60;;;;;;491901;240;1087;-74
2022/10/12 04:00:09;;;;;;;;;;;23.70;47.70;;;;;;491916;240;1131;-75
2022/10/12 04:02:10;;;;;;;;;;;23.70;47.80;;;;;;491880;240;1093;-74
2022/10/12 04:04:11;;;;;;;;;;;23.70;47.70;;;;;;491858;240;1110;-74
2022/10/12 04:06:13;;;;;;;;;;;23.70;47.70;;;;;;491866;240;1188;-74
2022/10/12 04:08:14;;;;;;;;;;;23.70;47.60;;;;;;491917;240;1108;-74
2022/10/12 04:10:15;;;;;;;;;;;23.70;47.70;;;;;;491754;240;2184;-74
2022/10/12 04:12:17;;;;;;;;;;;23.80;47.70;;;;;;491819;240;1130;-74
2022/10/12 04:14:18;;;;;;;;;;;23.70;47.70;;;;;;491782;240;1080;-74
2022/10/12 04:16:19;;;;;;;;;;;23.70;47.90;;;;;;491823;240;1157;-74
2022/10/12 04:18:21;;;;;;;;;;;23.70;47.80;;;;;;491918;240;1071;-75
2022/10/12 04:20:22;;;;;;;;;;;23.80;47.70;;;;;;491884;240;1140;-74
2022/10/12 04:22:24;;;;;;;;;;;23.80;47.50;;;;;;491902;240;1178;-74
2022/10/12 04:24:25;;;;;;;;;;;23.90;47.50;;;;;;491833;240;1220;-74
2022/10/12 04:26:26;;;;;;;;;;;23.90;47.30;;;;;;491828;240;1029;-74
2022/10/12 04:28:28;;;;;;;;;;;24.00;47.30;;;;;;491858;240;1096;-74
2022/10/12 04:30:29;;;;;;;;;;;24.00;47.20;;;;;;491779;240;2176;-74
2022/10/12 04:32:30;;;;;;;;;;;24.00;47.10;;;;;;491847;240;1058;-74
2022/10/12 04:34:32;;;;;;;;;;;24.10;46.90;;;;;;491818;240;1105;-74
2022/10/12 04:36:33;;;;;;;;;;;24.10;47.00;;;;;;491918;240;1062;-74
2022/10/12 04:38:34;;;;;;;;;;;24.00;47.20;;;;;;491840;240;1056;-74
2022/10/12 04:40:36;;;;;;;;;;;24.00;47.40;;;;;;491790;240;1024;-74
2022/10/12 04:42:37;;;;;;;;;;;24.00;47.30;;;;;;491884;240;1018;-74
2022/10/12 04:44:38;;;;;;;;;;;24.00;47.30;;;;;;491775;240;1014;-74
2022/10/12 04:46:40;;;;;;;;;;;23.90;47.40;;;;;;491818;240;1080;-74
2022/10/12 04:48:41;;;;;;;;;;;23.90;47.50;;;;;;491836;240;1036;-74
2022/10/12 04:50:42;;;;;;;;;;;23.90;47.50;;;;;;491679;240;2156;-74
2022/10/12 04:52:44;;;;;;;;;;;23.80;47.60;;;;;;491828;240;1024;-74
2022/10/12 04:54:46;;;;;;;;;;;23.90;47.70;;;;;;491855;240;1401;-74
2022/10/12 04:56:46;;;;;;;;;;;23.80;47.80;;;;;;491812;240;1273;-75
2022/10/12 04:58:48;;;;;;;;;;;23.90;47.70;;;;;;491899;240;1073;-75
2022/10/12 05:00:49;;;;;;;;;;;23.80;47.70;;;;;;491755;240;1226;-75
2022/10/12 05:02:50;;;;;;;;;;;23.90;47.80;;;;;;491828;240;1097;-75
2022/10/12 05:04:52;;;;;;;;;;;23.90;47.80;;;;;;491776;240;1146;-75
2022/10/12 05:06:53;;;;;;;;;;;23.90;47.80;;;;;;491813;240;1065;-75
2022/10/12 05:08:54;;;;;;;;;;;23.80;47.80;;;;;;491775;240;1194;-75
2022/10/12 05:10:58;;;;;;;;;;;23.80;47.80;;;;;;491672;240;2183;-74
2022/10/12 05:12:57;;;;;;;;;;;23.70;47.90;;;;;;491584;240;1274;-74
2022/10/12 05:14:58;;;;;;;;;;;23.80;47.90;;;;;;491653;240;1139;-74
2022/10/12 05:17:00;;;;;;;;;;;23.80;47.90;;;;;;491699;240;1153;-74
2022/10/12 05:19:01;;;;;;;;;;;23.80;47.90;;;;;;491587;240;1108;-74
2022/10/12 05:21:02;;;;;;;;;;;23.70;48.00;;;;;;491726;240;1058;-74
2022/10/12 05:23:04;;;;;;;;;;;23.70;48.10;;;;;;491679;240;1142;-74
2022/10/12 05:25:06;;;;;;;;;;;23.80;48.10;;;;;;491581;240;1076;-74
2022/10/12 05:27:06;;;;;;;;;;;23.80;48.00;;;;;;491798;240;1567;-74
2022/10/12 05:29:08;;;;;;;;;;;23.80;47.90;;;;;;491647;240;1186;-75
2022/10/12 05:31:09;;;;;;;;;;;23.80;47.90;;;;;;491663;240;2183;-75
2022/10/12 05:33:10;;;;;;;;;;;23.80;47.90;;;;;;491587;240;1197;-74
2022/10/12 05:35:12;;;;;;;;;;;23.80;47.90;;;;;;491703;240;1277;-74
2022/10/12 05:37:13;;;;;;;;;;;23.80;47.90;;;;;;491539;240;1175;-74
2022/10/12 05:39:15;;;;;;;;;;;23.70;48.10;;;;;;491581;240;1172;-74
2022/10/12 05:41:16;;;;;;;;;;;23.70;48.10;;;;;;491667;240;1407;-74
2022/10/12 05:43:17;;;;;;;;;;;23.70;48.20;;;;;;491671;240;1128;-74
2022/10/12 05:45:18;;;;;;;;;;;23.70;48.10;;;;;;491740;240;1171;-74
2022/10/12 05:47:20;;;;;;;;;;;23.70;48.10;;;;;;491600;240;1100;-74
2022/10/12 05:49:21;;;;;;;;;;;23.70;48.10;;;;;;491596;240;1264;-74
2022/10/12 05:51:22;;;;;;;;;;;23.70;48.20;;;;;;491501;240;2149;-74
2022/10/12 05:53:24;;;;;;;;;;;23.70;48.20;;;;;;491651;240;1075;-74
2022/10/12 05:55:25;;;;;;;;;;;23.80;48.10;;;;;;491647;240;1185;-74
2022/10/12 05:57:26;;;;;;;;;;;23.80;48.10;;;;;;491620;240;1163;-74
2022/10/12 05:59:28;;;;;;;;;;;23.80;48.20;;;;;;491689;240;1166;-74
2022/10/12 06:01:29;;;;;;;;;;;23.80;48.10;;;;;;491466;240;1173;-74
2022/10/12 06:03:30;;;;;;;;;;;23.80;48.10;;;;;;491440;240;1242;-75
2022/10/12 06:05:32;;;;;;;;;;;23.70;48.20;;;;;;491686;240;1072;-74
2022/10/12 06:07:33;;;;;;;;;;;23.80;48.20;;;;;;491546;240;1160;-74
2022/10/12 06:09:37;;;;;;;;;;;23.70;48.30;;;;;;491591;240;1189;-74
2022/10/12 06:11:36;;;;;;;;;;;23.70;48.30;;;;;;491793;240;2213;-74
2022/10/12 06:13:37;;;;;;;;;;;23.70;48.40;;;;;;491616;240;1214;-74
2022/10/12 06:15:38;;;;;;;;;;;23.60;48.40;;;;;;491503;240;1187;-74
2022/10/12 06:17:40;;;;;;;;;;;23.60;48.60;;;;;;491611;240;1114;-74
2022/10/12 06:19:41;;;;;;;;;;;23.60;48.60;;;;;;491631;240;1132;-74
2022/10/12 06:21:42;;;;;;;;;;;23.60;48.50;;;;;;491695;240;1168;-74
2022/10/12 06:23:44;;;;;;;;;;;23.60;48.60;;;;;;491568;240;1166;-74
2022/10/12 06:25:45;;;;;;;;;;;23.50;48.70;;;;;;491672;240;1072;-74
2022/10/12 06:27:46;;;;;;;;;;;23.50;48.80;;;;;;491536;240;1164;-75
2022/10/12 06:29:48;;;;;;;;;;;23.50;48.90;;;;;;491581;240;1116;-74
2022/10/12 06:31:49;;;;;;;;;;;23.40;48.90;;;;;;491599;240;2184;-74
2022/10/12 06:33:51;;;;;;;;;;;23.50;48.90;;;;;;491201;240;1082;-74
2022/10/12 06:35:52;;;;;;;;;;;23.40;48.90;;;;;;491568;240;1091;-74
2022/10/12 06:37:53;;;;;;;;;;;23.40;49.10;;;;;;491609;240;1100;-74
2022/10/12 06:39:54;;;;;;;;;;;23.40;49.00;;;;;;491358;240;1066;-74
2022/10/12 06:41:56;;;;;;;;;;;23.30;49.10;;;;;;491609;240;1164;-74
2022/10/12 06:43:57;;;;;;;;;;;23.40;49.20;;;;;;491318;240;1120;-74
2022/10/12 06:45:58;;;;;;;;;;;23.50;49.10;;;;;;491503;240;1148;-74
2022/10/12 06:48:00;;;;;;;;;;;23.60;48.90;;;;;;491483;240;1107;-74
2022/10/12 06:50:01;;;;;;;;;;;23.70;48.60;;;;;;491395;240;1054;-74
2022/10/12 06:52:02;;;;;;;;;;;23.90;48.40;;;;;;491476;240;2151;-74
2022/10/12 06:54:04;;;;;;;;;;;23.90;48.20;;;;;;491406;240;1050;-74
2022/10/12 06:56:05;;;;;;;;;;;24.00;48.00;;;;;;491432;240;1138;-75
2022/10/12 06:58:06;;;;;;;;;;;24.00;48.00;;;;;;491522;240;1093;-75
2022/10/12 07:00:08;;;;;;;;;;;23.90;48.20;;;;;;491596;240;1073;-74
2022/10/12 07:02:09;;;;;;;;;;;23.90;48.30;;;;;;491378;240;1279;-74
2022/10/12 07:04:10;;;;;;;;;;;23.90;48.50;;;;;;491219;240;1068;-74
2022/10/12 07:06:12;;;;;;;;;;;23.80;48.60;;;;;;491419;240;1087;-74
2022/10/12 07:08:13;;;;;;;;;;;23.80;48.60;;;;;;491360;240;1144;-74
2022/10/12 07:10:14;;;;;;;;;;;23.80;48.50;;;;;;491473;240;996;-74
2022/10/12 07:12:16;;;;;;;;;;;23.80;48.50;;;;;;491477;240;2184;-74
2022/10/12 07:14:17;;;;;;;;;;;23.90;48.40;;;;;;491382;240;1029;-74
2022/10/12 07:16:18;;;;;;;;;;;24.00;48.30;;;;;;491241;240;1152;-74
2022/10/12 07:18:19;;;;;;;;;;;24.00;48.30;;;;;;491260;240;1155;-74
2022/10/12 07:20:21;;;;;;;;;;;24.00;48.30;;;;;;491332;240;1100;-74
2022/10/12 07:22:22;;;;;;;;;;;24.00;48.20;;;;;;491405;240;1115;-74
2022/10/12 07:24:24;;;;;;;;;;;24.00;48.40;;;;;;491237;240;1102;-74
2022/10/12 07:26:25;;;;;;;;;;;23.90;48.40;;;;;;491380;240;1144;-74
2022/10/12 07:28:26;;;;;;;;;;;23.90;48.50;;;;;;491176;240;1438;-74
2022/10/12 07:30:28;;;;;;;;;;;23.90;48.60;;;;;;491217;240;1197;-74
2022/10/12 07:32:29;;;;;;;;;;;23.90;48.60;;;;;;491083;240;2195;-74
2022/10/12 07:34:30;;;;;;;;;;;23.90;48.60;;;;;;491265;240;1166;-74
2022/10/12 07:36:32;;;;;;;;;;;23.90;48.60;;;;;;491222;240;1104;-74
2022/10/12 07:38:33;;;;;;;;;;;23.90;48.60;;;;;;491259;240;1176;-74
2022/10/12 07:40:34;;;;;;;;;;;23.90;48.60;;;;;;491286;240;1222;-74
2022/10/12 07:42:36;;;;;;;;;;;24.00;48.50;;;;;;491403;240;1078;-74
2022/10/12 07:44:37;;;;;;;;;;;24.00;48.40;;;;;;491340;240;1444;-74
2022/10/12 07:46:38;;;;;;;;;;;23.90;48.40;;;;;;491355;240;1137;-74
2022/10/12 07:48:40;;;;;;;;;;;23.90;48.50;;;;;;491413;240;1131;-74
2022/10/12 07:50:41;;;;;;;;;;;24.00;48.50;;;;;;490535;240;1064;-74
2022/10/12 07:52:43;;;;;;;;;;;24.00;48.60;;;;;;491438;240;2192;-74
2022/10/12 07:54:44;;;;;;;;;;;23.90;48.50;;;;;;490359;240;1173;-75
2022/10/12 07:56:46;;;;;;;;;;;23.90;48.60;;;;;;491655;240;1225;-74
2022/10/12 07:58:47;;;;;;;;;;;23.90;48.60;;;;;;491384;240;1131;-74
2022/10/12 08:00:48;;;;;;;;;;;23.90;48.70;;;;;;491507;240;1055;-74
2022/10/12 08:02:50;;;;;;;;;;;23.90;48.60;;;;;;491246;240;1205;-74
2022/10/12 08:04:51;;;;;;;;;;;23.90;48.70;;;;;;491254;240;1113;-74
2022/10/12 08:06:52;;;;;;;;;;;24.00;48.70;;;;;;491423;240;1108;-74
2022/10/12 08:08:54;;;;;;;;;;;24.00;48.50;;;;;;491406;240;1325;-74
2022/10/12 08:10:56;;;;;;;;;;;24.00;48.40;;;;;;491543;240;1119;-74
2022/10/12 08:12:56;;;;;;;;;;;24.00;48.40;;;;;;491406;240;2149;-75
2022/10/12 08:14:58;;;;;;;;;;;24.00;48.50;;;;;;491303;240;1093;-74
2022/10/12 08:16:59;;;;;;;;;;;24.00;48.50;;;;;;491298;240;1072;-74
2022/10/12 08:19:00;;;;;;;;;;;24.00;48.50;;;;;;491403;240;1054;-74
2022/10/12 08:21:02;;;;;;;;;;;24.00;48.50;;;;;;491471;240;1051;-74
2022/10/12 08:23:03;;;;;;;;;;;24.00;48.50;;;;;;491279;240;1470;-74
2022/10/12 08:25:04;;;;;;;;;;;24.00;48.60;;;;;;491506;240;1112;-75
2022/10/12 08:27:06;;;;;;;;;;;24.00;48.60;;;;;;491406;240;1166;-75
2022/10/12 08:29:07;;;;;;;;;;;23.90;48.70;;;;;;491182;240;1121;-75
2022/10/12 08:31:09;;;;;;;;;;;23.90;48.80;;;;;;491428;240;1194;-74
2022/10/12 08:33:10;;;;;;;;;;;23.80;48.90;;;;;;491333;240;2199;-75
2022/10/12 08:35:11;;;;;;;;;;;23.80;48.90;;;;;;491357;240;1253;-74
2022/10/12 08:37:13;;;;;;;;;;;23.80;49.00;;;;;;491429;240;1329;-74
2022/10/12 08:39:14;;;;;;;;;;;23.80;49.00;;;;;;491268;240;1103;-74
2022/10/12 08:41:15;;;;;;;;;;;23.70;49.00;;;;;;491247;240;1079;-74
2022/10/12 08:43:17;;;;;;;;;;;23.70;49.10;;;;;;491295;240;1026;-74
2022/10/12 08:45:18;;;;;;;;;;;23.80;49.00;;;;;;490456;240;1055;-74
2022/10/12 08:47:19;;;;;;;;;;;23.80;49.10;;;;;;491238;240;1038;-74
2022/10/12 08:49:20;;;;;;;;;;;23.80;49.20;;;;;;491296;240;1093;-74
2022/10/12 08:51:22;;;;;;;;;;;23.70;49.10;;;;;;491247;240;1098;-74
2022/10/12 08:53:24;;;;;;;;;;;23.70;49.10;;;;;;491321;240;2196;-75
2022/10/12 08:55:25;;;;;;;;;;;23.70;49.00;;;;;;491341;240;1365;-74
2022/10/12 08:57:26;;;;;;;;;;;23.80;49.00;;;;;;491296;240;1069;-74
2022/10/12 08:59:27;;;;;;;;;;;23.80;49.00;;;;;;491164;240;1032;-74
2022/10/12 09:01:29;;;;;;;;;;;23.80;49.10;;;;;;491389;240;1132;-74
2022/10/12 09:03:30;;;;;;;;;;;23.80;49.00;;;;;;491324;240;1147;-74
2022/10/12 09:05:31;;;;;;;;;;;23.70;49.00;;;;;;491331;242;1188;-74
2022/10/12 09:07:33;;;;;;;;;;;23.80;49.00;;;;;;491100;240;1218;-74
2022/10/12 09:09:34;;;;;;;;;;;23.80;49.00;;;;;;491206;240;1375;-74
2022/10/12 09:11:35;;;;;;;;;;;23.80;49.00;;;;;;491433;240;1047;-74
2022/10/12 09:13:37;;;;;;;;;;;23.70;49.00;;;;;;491385;240;2397;-74
2022/10/12 09:15:38;;;;;;;;;;;23.80;49.00;;;;;;491452;240;1127;-75
2022/10/12 09:17:40;;;;;;;;;;;23.70;49.10;;;;;;490930;240;1158;-74
2022/10/12 09:19:41;;;;;;;;;;;23.80;49.00;;;;;;491005;240;1442;-75
2022/10/12 09:21:42;;;;;;;;;;;23.70;49.00;;;;;;491408;240;1372;-75
2022/10/12 09:23:43;;;;;;;;;;;23.70;49.20;;;;;;491517;240;1092;-74
2022/10/12 09:25:45;;;;;;;;;;;23.80;49.10;;;;;;491425;240;1173;-74
2022/10/12 09:27:46;;;;;;;;;;;23.80;49.10;;;;;;491430;240;1217;-74
2022/10/12 09:29:48;;;;;;;;;;;23.90;49.10;;;;;;491204;240;1104;-75
2022/10/12 09:31:49;;;;;;;;;;;23.80;49.00;;;;;;491345;240;1178;-75
2022/10/12 09:33:50;;;;;;;;;;;23.80;49.10;;;;;;491430;240;2136;-75
2022/10/12 09:35:52;;;;;;;;;;;23.80;49.00;;;;;;491460;240;1193;-74
2022/10/12 09:37:53;;;;;;;;;;;23.80;49.00;;;;;;491521;240;1208;-74
2022/10/12 09:39:54;;;;;;;;;;;23.80;49.00;;;;;;491358;240;1187;-74
2022/10/12 09:41:56;;;;;;;;;;;23.70;49.00;;;;;;491387;240;1050;-74
2022/10/12 09:43:58;;;;;;;;;;;23.70;49.20;;;;;;491194;240;1074;-74
2022/10/12 09:45:58;;;;;;;;;;;23.70;49.20;;;;;;491469;240;1424;-74
2022/10/12 09:47:59;;;;;;;;;;;23.80;49.10;;;;;;491403;240;1442;-75
2022/10/12 09:50:01;;;;;;;;;;;23.70;49.10;;;;;;491273;240;1095;-74
2022/10/12 09:52:02;;;;;;;;;;;23.80;49.00;;;;;;491246;240;1093;-75
2022/10/12 09:54:03;;;;;;;;;;;23.90;48.80;;;;;;491112;240;2225;-74
2022/10/12 09:56:05;;;;;;;;;;;23.90;48.90;;;;;;491072;240;1141;-74
2022/10/12 09:58:06;;;;;;;;;;;23.80;48.80;;;;;;491392;240;1062;-74
2022/10/12 10:00:08;;;;;;;;;;;23.80;48.90;;;;;;491390;240;1068;-74
2022/10/12 10:02:09;;;;;;;;;;;23.90;49.00;;;;;;491511;240;1153;-74
2022/10/12 10:04:10;;;;;;;;;;;23.80;48.90;;;;;;491399;240;1169;-75
2022/10/12 10:06:14;;;;;;;;;;;23.90;49.00;;;;;;491506;240;1036;-74
2022/10/12 10:08:13;;;;;;;;;;;23.80;49.00;;;;;;491413;240;1586;-75
2022/10/12 10:10:15;;;;;;;;;;;23.80;49.00;;;;;;491479;240;1075;-75
2022/10/12 10:12:16;;;;;;;;;;;23.80;49.10;;;;;;491481;240;1114;-74
2022/10/12 10:14:17;;;;;;;;;;;23.80;49.20;;;;;;491421;240;2215;-74
2022/10/12 10:16:18;;;;;;;;;;;23.80;49.20;;;;;;491651;240;1154;-74
2022/10/12 10:18:20;;;;;;;;;;;23.70;49.20;;;;;;491250;240;1095;-75
2022/10/12 10:20:21;;;;;;;;;;;23.80;49.10;;;;;;491452;240;1097;-75
2022/10/12 10:22:22;;;;;;;;;;;23.80;49.10;;;;;;491553;240;1272;-74
2022/10/12 10:24:24;;;;;;;;;;;23.80;49.10;;;;;;491473;240;1118;-74
2022/10/12 10:26:25;;;;;;;;;;;23.70;49.20;;;;;;491342;240;1187;-74
2022/10/12 10:28:26;;;;;;;;;;;23.70;49.30;;;;;;491442;240;1077;-74
2022/10/12 10:30:28;;;;;;;;;;;23.70;49.30;;;;;;491396;240;1105;-74
2022/10/12 10:32:30;;;;;;;;;;;23.70;49.20;;;;;;491573;240;2437;-75
2022/10/12 10:34:30;;;;;;;;;;;23.70;49.20;;;;;;491463;240;1481;-75
2022/10/12 10:36:32;;;;;;;;;;;23.70;49.20;;;;;;491460;240;1057;-74
2022/10/12 10:38:33;;;;;;;;;;;23.70;49.30;;;;;;491527;240;1045;-74
2022/10/12 10:40:34;;;;;;;;;;;23.70;49.40;;;;;;491541;240;1068;-75
2022/10/12 10:42:36;;;;;;;;;;;23.80;49.30;;;;;;491624;240;1069;-75
2022/10/12 10:44:37;;;;;;;;;;;23.70;49.30;;;;;;491591;240;1177;-74
2022/10/12 10:46:38;;;;;;;;;;;23.80;49.20;;;;;;491473;240;1268;-74
2022/10/12 10:48:40;;;;;;;;;;;23.80;49.30;;;;;;491333;240;1076;-74
2022/10/12 10:50:41;;;;;;;;;;;23.80;49.20;;;;;;491419;240;1159;-74
2022/10/12 10:52:42;;;;;;;;;;;23.80;49.10;;;;;;491339;240;2197;-74
2022/10/12 10:54:44;;;;;;;;;;;23.80;49.10;;;;;;491555;240;1182;-74
2022/10/12 10:56:46;;;;;;;;;;;23.90;49.20;;;;;;491518;240;1120;-74
2022/10/12 10:58:47;;;;;;;;;;;23.90;49.10;;;;;;491342;240;1170;-74
2022/10/12 11:00:49;;;;;;;;;;;23.90;49.10;;;;;;491311;240;1433;-74
2022/10/12 11:02:50;;;;;;;;;;;23.90;49.10;;;;;;491381;240;1100;-74
2022/10/12 11:04:51;;;;;;;;;;;23.80;49.10;;;;;;491299;240;1201;-74
2022/10/12 11:06:53;;;;;;;;;;;23.90;49.10;;;;;;491386;240;1069;-74
2022/10/12 11:08:54;;;;;;;;;;;23.90;49.00;;;;;;491386;240;1087;-74
2022/10/12 11:10:55;;;;;;;;;;;23.90;49.00;;;;;;491495;240;1129;-75
2022/10/12 11:12:57;;;;;;;;;;;23.80;49.10;;;;;;491233;240;2188;-75
2022/10/12 11:14:58;;;;;;;;;;;23.80;49.00;;;;;;491349;240;1150;-74
2022/10/12 11:16:59;;;;;;;;;;;23.90;49.10;;;;;;491320;240;1060;-74
2022/10/12 11:19:01;;;;;;;;;;;23.80;49.00;;;;;;491408;240;1160;-74
2022/10/12 11:21:02;;;;;;;;;;;23.90;49.10;;;;;;491448;240;1045;-74
2022/10/12 11:23:03;;;;;;;;;;;23.80;49.00;;;;;;491366;240;1015;-74
2022/10/12 11:25:05;;;;;;;;;;;23.80;49.00;;;;;;491176;240;985;-74
2022/10/12 11:27:06;;;;;;;;;;;23.90;48.90;;;;;;491100;240;1111;-74
2022/10/12 11:29:07;;;;;;;;;;;23.90;48.80;;;;;;491050;240;1175;-74
2022/10/12 11:31:09;;;;;;;;;;;23.90;48.80;;;;;;491306;240;1129;-75
2022/10/12 11:33:10;;;;;;;;;;;23.90;48.80;;;;;;491178;240;2188;-75
2022/10/12 11:35:11;;;;;;;;;;;23.80;48.80;;;;;;491194;240;1217;-74
2022/10/12 11:37:13;;;;;;;;;;;23.90;48.80;;;;;;491191;240;1044;-74
2022/10/12 11:39:14;;;;;;;;;;;23.80;48.80;;;;;;491393;240;1072;-74
2022/10/12 11:41:15;;;;;;;;;;;23.80;48.80;;;;;;491505;240;1049;-75
2022/10/12 11:43:17;;;;;;;;;;;23.90;48.80;;;;;;491387;240;1106;-74
2022/10/12 11:45:18;;;;;;;;;;;23.90;48.70;;;;;;491203;240;1127;-74
2022/10/12 11:47:19;;;;;;;;;;;23.90;48.70;;;;;;491241;240;1201;-75
2022/10/12 11:49:21;;;;;;;;;;;23.80;48.80;;;;;;491160;240;1113;-74
2022/10/12 11:51:22;;;;;;;;;;;23.90;48.80;;;;;;491286;240;1179;-74
2022/10/12 11:53:23;;;;;;;;;;;23.90;48.80;;;;;;491290;240;2187;-74
2022/10/12 11:55:25;;;;;;;;;;;23.90;48.70;;;;;;491179;240;1299;-74
2022/10/12 11:57:26;;;;;;;;;;;23.90;48.70;;;;;;491430;240;1297;-74